Zim Qingdao — A8IZ2 — position and weather

sailwx.info

Track history (hours):
 
Tides and Currents Weather Stations Pressure Air Temp Water Temp Dewpoint Dewpoint Depression Visibility Wind Speed Wind Dir Waves Ship Positions

Zim Qingdao

Last reported at 2016-Jul-18 07:33 UTC. Time now 2016-Jul-29 07:50 UTC.
Position N 01°51' E 102°27'.
Warning: this ship's position is 11 days out of date.

Length 260.61 m; beam 32.25 m; draft 12.6 m.

Type: Cargo ship. MMSI: 636012904.

Date/timePositionNaut miles runAvg speedWind from/ knotsBaromVisibWave heightAir tempDewpointWater temp
2016-Jul-18 07:33N 01°51' E 102°27'2019.7
2016-Jul-18 06:31N 01°43' E 102°46'7017.2
2016-Jul-18 02:27N 01°10' E 103°48'1618.1
2016-Jul-18 01:33N 01°16' E 104°03'  
2016-Jul-14 17:22N 22°18' E 114°05'1210.6
2016-Jul-14 16:17N 22°23' E 113°54'0 0.0
2016-Jul-14 04:33N 22°23' E 113°54'1110.2
2016-Jul-14 03:26N 22°19' E 114°06'62916.2
2016-Jul-12 12:33N 29°51' E 122°12'1312.9
2016-Jul-12 11:33N 29°57' E 121°59'8 3.6
2016-Jul-12 09:17N 29°57' E 121°50'0 0.0
2016-Jul-12 05:23N 29°57' E 121°50'0 0.0
2016-Jul-12 03:17N 29°57' E 121°50'0 0.0
2016-Jul-12 02:05N 29°57' E 121°50'0 0.0
2016-Jul-12 01:29N 29°57' E 121°50'0 0.0
2016-Jul-12 00:17N 29°57' E 121°50'0 0.0
2016-Jul-11 23:17N 29°57' E 121°50'0 0.0
2016-Jul-11 22:17N 29°57' E 121°50'0 0.0
2016-Jul-11 21:26N 29°57' E 121°50'1 1.5
2016-Jul-11 20:32N 29°57' E 121°51'1313.2
2016-Jul-11 19:33N 29°56' E 122°06'1312.0
2016-Jul-11 18:26N 29°46' E 122°17'7 7.0
2016-Jul-11 17:25N 29°44' E 122°25'8 3.7
2016-Jul-11 15:18N 29°47' E 122°34'49 1.7
2016-Jul-10 10:23N 30°34' E 122°45'8 8.9
2016-Jul-10 09:32N 30°36' E 122°54'  
Track history (hours):
 
Tides and Currents Weather Stations Pressure Air Temp Water Temp Dewpoint Dewpoint Depression Visibility Wind Speed Wind Dir Waves Ship Positions

Zim Qingdao

Last reported at 2016-Jul-18 07:33 UTC. Time now 2016-Jul-29 07:50 UTC.
Position N 01°51' E 102°27'.
Warning: this ship's position is 11 days out of date.

Length 260.61 m; beam 32.25 m; draft 12.6 m.

Type: Cargo ship. MMSI: 636012904.

Date/timePositionNaut miles runAvg speedWind from/ knotsBaromVisibWave heightAir tempDewpointWater temp
2016-Jul-18 07:33N 01°51' E 102°27'2019.7
2016-Jul-18 06:31N 01°43' E 102°46'7017.2
2016-Jul-18 02:27N 01°10' E 103°48'1618.1
2016-Jul-18 01:33N 01°16' E 104°03'  
2016-Jul-14 17:22N 22°18' E 114°05'1210.6
2016-Jul-14 16:17N 22°23' E 113°54'0 0.0
2016-Jul-14 04:33N 22°23' E 113°54'1110.2
2016-Jul-14 03:26N 22°19' E 114°06'62916.2
2016-Jul-12 12:33N 29°51' E 122°12'1312.9
2016-Jul-12 11:33N 29°57' E 121°59'8 3.6
2016-Jul-12 09:17N 29°57' E 121°50'0 0.0
2016-Jul-12 05:23N 29°57' E 121°50'0 0.0
2016-Jul-12 03:17N 29°57' E 121°50'0 0.0
2016-Jul-12 02:05N 29°57' E 121°50'0 0.0
2016-Jul-12 01:29N 29°57' E 121°50'0 0.0
2016-Jul-12 00:17N 29°57' E 121°50'0 0.0
2016-Jul-11 23:17N 29°57' E 121°50'0 0.0
2016-Jul-11 22:17N 29°57' E 121°50'0 0.0
2016-Jul-11 21:26N 29°57' E 121°50'1 1.5
2016-Jul-11 20:32N 29°57' E 121°51'1313.2
2016-Jul-11 19:33N 29°56' E 122°06'1312.0
2016-Jul-11 18:26N 29°46' E 122°17'7 7.0
2016-Jul-11 17:25N 29°44' E 122°25'8 3.7
2016-Jul-11 15:18N 29°47' E 122°34'49 1.7
2016-Jul-10 10:23N 30°34' E 122°45'8 8.9
2016-Jul-10 09:32N 30°36' E 122°54'  

Dump ship's entire track history